Terminal Aerodrome Forecast
Issued by NWS Charleston, WV

Current Version | Previous Version | Text Only | Print | Product List | Glossary Off
Versions: 1 2 3 4 5 6 7 8 9 10 11 12 13 14 15 16 17 18 19 20 21 22 23 24 25 26

886
FTUS41 KRLX 192322
TAFBKW
TAF
KBKW 192322Z 2000/2024 33006KT P6SM BKN024
     FM200600 00000KT P6SM SCT035
     FM200900 VRB02KT P6SM SCT250
     FM202200 22005KT P6SM -SHRA BKN070=

USA.gov is the U.S. government's official web portal to all federal, state and local government web resources and services.